sensor_id;sensor_type;location;lat;lon;timestamp;P1;durP1;ratioP1;P2;durP2;ratioP2
25069;SDS011;13064;48.162;11.536;2022-11-14T00:01:36;36.97;;;11.50;;
25069;SDS011;13064;48.162;11.536;2022-11-14T00:04:25;87.95;;;12.07;;
25069;SDS011;13064;48.162;11.536;2022-11-14T00:07:14;55.87;;;12.13;;
25069;SDS011;13064;48.162;11.536;2022-11-14T00:10:00;31.10;;;10.88;;
25069;SDS011;13064;48.162;11.536;2022-11-14T00:12:47;48.63;;;11.07;;
25069;SDS011;13064;48.162;11.536;2022-11-14T00:15:33;40.45;;;11.60;;
25069;SDS011;13064;48.162;11.536;2022-11-14T00:18:19;85.00;;;11.90;;
25069;SDS011;13064;48.162;11.536;2022-11-14T00:21:06;23.38;;;11.20;;
25069;SDS011;13064;48.162;11.536;2022-11-14T00:23:52;50.17;;;11.90;;
25069;SDS011;13064;48.162;11.536;2022-11-14T00:26:38;45.92;;;11.43;;
25069;SDS011;13064;48.162;11.536;2022-11-14T00:29:24;50.80;;;12.48;;
25069;SDS011;13064;48.162;11.536;2022-11-14T00:35:28;33.78;;;11.80;;
25069;SDS011;13064;48.162;11.536;2022-11-14T00:38:15;22.25;;;11.50;;
25069;SDS011;13064;48.162;11.536;2022-11-14T00:41:01;27.30;;;11.63;;
25069;SDS011;13064;48.162;11.536;2022-11-14T00:43:47;52.38;;;11.05;;
25069;SDS011;13064;48.162;11.536;2022-11-14T00:46:34;33.10;;;10.75;;
25069;SDS011;13064;48.162;11.536;2022-11-14T00:49:20;63.67;;;11.27;;
25069;SDS011;13064;48.162;11.536;2022-11-14T00:55:18;20.27;;;9.53;;
25069;SDS011;13064;48.162;11.536;2022-11-14T00:58:04;24.80;;;9.90;;
25069;SDS011;13064;48.162;11.536;2022-11-14T01:00:52;45.55;;;10.65;;
25069;SDS011;13064;48.162;11.536;2022-11-14T01:03:38;46.35;;;11.13;;
25069;SDS011;13064;48.162;11.536;2022-11-14T01:06:24;61.28;;;11.25;;
25069;SDS011;13064;48.162;11.536;2022-11-14T01:09:10;39.33;;;11.70;;
25069;SDS011;13064;48.162;11.536;2022-11-14T01:11:57;38.13;;;11.13;;
25069;SDS011;13064;48.162;11.536;2022-11-14T01:14:43;26.02;;;10.23;;
25069;SDS011;13064;48.162;11.536;2022-11-14T01:17:29;18.30;;;10.32;;
25069;SDS011;13064;48.162;11.536;2022-11-14T01:20:15;33.00;;;10.25;;
25069;SDS011;13064;48.162;11.536;2022-11-14T01:23:02;31.00;;;11.35;;
25069;SDS011;13064;48.162;11.536;2022-11-14T01:25:48;56.05;;;10.38;;
25069;SDS011;13064;48.162;11.536;2022-11-14T01:28:35;155.65;;;13.68;;
25069;SDS011;13064;48.162;11.536;2022-11-14T01:31:22;29.95;;;9.52;;
25069;SDS011;13064;48.162;11.536;2022-11-14T01:34:13;18.80;;;9.27;;
25069;SDS011;13064;48.162;11.536;2022-11-14T01:37:01;18.85;;;9.90;;
25069;SDS011;13064;48.162;11.536;2022-11-14T01:39:48;71.43;;;10.75;;
25069;SDS011;13064;48.162;11.536;2022-11-14T01:42:35;74.60;;;9.98;;
25069;SDS011;13064;48.162;11.536;2022-11-14T01:48:37;55.42;;;8.45;;
25069;SDS011;13064;48.162;11.536;2022-11-14T01:51:38;45.55;;;8.75;;
25069;SDS011;13064;48.162;11.536;2022-11-14T01:54:25;88.90;;;10.63;;
25069;SDS011;13064;48.162;11.536;2022-11-14T01:57:13;70.35;;;9.35;;
25069;SDS011;13064;48.162;11.536;2022-11-14T02:00:04;68.22;;;9.55;;
25069;SDS011;13064;48.162;11.536;2022-11-14T02:02:50;26.23;;;9.27;;
25069;SDS011;13064;48.162;11.536;2022-11-14T02:05:37;47.80;;;8.90;;
25069;SDS011;13064;48.162;11.536;2022-11-14T02:08:23;38.50;;;8.45;;
25069;SDS011;13064;48.162;11.536;2022-11-14T02:11:12;100.10;;;10.02;;
25069;SDS011;13064;48.162;11.536;2022-11-14T02:13:58;104.70;;;9.45;;
25069;SDS011;13064;48.162;11.536;2022-11-14T02:16:45;80.03;;;8.75;;
25069;SDS011;13064;48.162;11.536;2022-11-14T02:22:49;19.63;;;7.70;;
25069;SDS011;13064;48.162;11.536;2022-11-14T02:25:36;50.47;;;8.55;;
25069;SDS011;13064;48.162;11.536;2022-11-14T02:28:23;44.97;;;7.05;;
25069;SDS011;13064;48.162;11.536;2022-11-14T02:31:10;34.47;;;8.38;;
25069;SDS011;13064;48.162;11.536;2022-11-14T02:33:56;32.72;;;7.82;;
25069;SDS011;13064;48.162;11.536;2022-11-14T02:36:43;43.90;;;8.38;;
25069;SDS011;13064;48.162;11.536;2022-11-14T02:39:29;46.95;;;9.23;;
25069;SDS011;13064;48.162;11.536;2022-11-14T02:42:16;10.98;;;7.15;;
25069;SDS011;13064;48.162;11.536;2022-11-14T02:45:03;11.65;;;7.22;;
25069;SDS011;13064;48.162;11.536;2022-11-14T02:47:50;11.63;;;7.25;;
25069;SDS011;13064;48.162;11.536;2022-11-14T02:50:36;15.73;;;7.43;;
25069;SDS011;13064;48.162;11.536;2022-11-14T02:53:22;19.75;;;7.43;;
25069;SDS011;13064;48.162;11.536;2022-11-14T02:56:09;16.60;;;7.25;;
25069;SDS011;13064;48.162;11.536;2022-11-14T02:58:55;17.10;;;7.03;;
25069;SDS011;13064;48.162;11.536;2022-11-14T03:01:45;15.30;;;7.05;;
25069;SDS011;13064;48.162;11.536;2022-11-14T03:04:31;10.73;;;6.15;;
25069;SDS011;13064;48.162;11.536;2022-11-14T03:07:18;11.15;;;6.15;;
25069;SDS011;13064;48.162;11.536;2022-11-14T03:10:04;9.82;;;6.95;;
25069;SDS011;13064;48.162;11.536;2022-11-14T03:12:54;8.00;;;7.18;;
25069;SDS011;13064;48.162;11.536;2022-11-14T03:15:40;16.30;;;7.60;;
25069;SDS011;13064;48.162;11.536;2022-11-14T03:18:26;10.32;;;7.53;;
25069;SDS011;13064;48.162;11.536;2022-11-14T03:21:14;16.75;;;6.85;;
25069;SDS011;13064;48.162;11.536;2022-11-14T03:24:00;13.30;;;6.88;;
25069;SDS011;13064;48.162;11.536;2022-11-14T03:26:47;9.77;;;6.78;;
25069;SDS011;13064;48.162;11.536;2022-11-14T03:29:33;15.73;;;7.85;;
25069;SDS011;13064;48.162;11.536;2022-11-14T03:32:20;34.03;;;9.18;;
25069;SDS011;13064;48.162;11.536;2022-11-14T03:35:06;32.60;;;7.60;;
25069;SDS011;13064;48.162;11.536;2022-11-14T03:37:53;22.58;;;7.68;;
25069;SDS011;13064;48.162;11.536;2022-11-14T03:40:41;18.75;;;7.60;;
25069;SDS011;13064;48.162;11.536;2022-11-14T03:43:33;12.40;;;7.07;;
25069;SDS011;13064;48.162;11.536;2022-11-14T03:46:20;10.88;;;6.88;;
25069;SDS011;13064;48.162;11.536;2022-11-14T03:49:07;10.82;;;6.80;;
25069;SDS011;13064;48.162;11.536;2022-11-14T03:51:53;22.35;;;6.43;;
25069;SDS011;13064;48.162;11.536;2022-11-14T03:54:39;11.68;;;6.70;;
25069;SDS011;13064;48.162;11.536;2022-11-14T03:57:25;28.00;;;6.57;;
25069;SDS011;13064;48.162;11.536;2022-11-14T04:00:14;30.77;;;6.88;;
25069;SDS011;13064;48.162;11.536;2022-11-14T04:03:00;20.95;;;7.20;;
25069;SDS011;13064;48.162;11.536;2022-11-14T04:05:47;28.92;;;6.97;;
25069;SDS011;13064;48.162;11.536;2022-11-14T04:08:34;15.02;;;7.28;;
25069;SDS011;13064;48.162;11.536;2022-11-14T04:11:20;8.88;;;7.40;;
25069;SDS011;13064;48.162;11.536;2022-11-14T04:14:08;9.65;;;6.75;;
25069;SDS011;13064;48.162;11.536;2022-11-14T04:16:55;12.02;;;8.30;;
25069;SDS011;13064;48.162;11.536;2022-11-14T04:19:41;16.83;;;7.55;;
25069;SDS011;13064;48.162;11.536;2022-11-14T04:22:28;9.10;;;7.50;;
25069;SDS011;13064;48.162;11.536;2022-11-14T04:25:14;9.07;;;7.72;;
25069;SDS011;13064;48.162;11.536;2022-11-14T04:28:00;8.95;;;7.63;;
25069;SDS011;13064;48.162;11.536;2022-11-14T04:30:47;8.35;;;6.93;;
25069;SDS011;13064;48.162;11.536;2022-11-14T04:33:36;12.13;;;7.25;;
25069;SDS011;13064;48.162;11.536;2022-11-14T04:36:22;10.55;;;7.10;;
25069;SDS011;13064;48.162;11.536;2022-11-14T04:39:08;10.32;;;6.32;;
25069;SDS011;13064;48.162;11.536;2022-11-14T04:41:55;7.93;;;6.28;;
25069;SDS011;13064;48.162;11.536;2022-11-14T04:44:41;14.68;;;6.53;;
25069;SDS011;13064;48.162;11.536;2022-11-14T04:47:27;18.38;;;6.93;;
25069;SDS011;13064;48.162;11.536;2022-11-14T04:50:14;6.72;;;5.95;;
25069;SDS011;13064;48.162;11.536;2022-11-14T04:53:00;6.63;;;5.93;;
25069;SDS011;13064;48.162;11.536;2022-11-14T04:55:47;8.60;;;5.65;;
25069;SDS011;13064;48.162;11.536;2022-11-14T04:58:33;9.88;;;6.00;;
25069;SDS011;13064;48.162;11.536;2022-11-14T05:01:23;6.68;;;5.93;;
25069;SDS011;13064;48.162;11.536;2022-11-14T05:04:09;6.25;;;5.03;;
25069;SDS011;13064;48.162;11.536;2022-11-14T05:06:55;7.28;;;6.13;;
25069;SDS011;13064;48.162;11.536;2022-11-14T05:09:41;8.02;;;6.18;;
25069;SDS011;13064;48.162;11.536;2022-11-14T05:12:28;9.77;;;6.22;;
25069;SDS011;13064;48.162;11.536;2022-11-14T05:15:14;6.68;;;5.85;;
25069;SDS011;13064;48.162;11.536;2022-11-14T05:18:00;7.07;;;6.07;;
25069;SDS011;13064;48.162;11.536;2022-11-14T05:20:46;18.48;;;6.75;;
25069;SDS011;13064;48.162;11.536;2022-11-14T05:23:34;16.05;;;6.63;;
25069;SDS011;13064;48.162;11.536;2022-11-14T05:26:20;8.20;;;6.72;;
25069;SDS011;13064;48.162;11.536;2022-11-14T05:29:06;12.00;;;6.95;;
25069;SDS011;13064;48.162;11.536;2022-11-14T05:31:53;11.00;;;7.53;;
25069;SDS011;13064;48.162;11.536;2022-11-14T05:34:39;12.27;;;8.02;;
25069;SDS011;13064;48.162;11.536;2022-11-14T05:37:25;22.73;;;7.55;;
25069;SDS011;13064;48.162;11.536;2022-11-14T05:40:15;26.75;;;7.55;;
25069;SDS011;13064;48.162;11.536;2022-11-14T05:43:03;8.88;;;7.38;;
25069;SDS011;13064;48.162;11.536;2022-11-14T05:45:49;18.95;;;8.07;;
25069;SDS011;13064;48.162;11.536;2022-11-14T05:48:35;9.32;;;8.05;;
25069;SDS011;13064;48.162;11.536;2022-11-14T05:51:22;12.43;;;7.93;;
25069;SDS011;13064;48.162;11.536;2022-11-14T05:54:08;10.82;;;7.88;;
25069;SDS011;13064;48.162;11.536;2022-11-14T05:56:54;10.80;;;7.78;;
25069;SDS011;13064;48.162;11.536;2022-11-14T05:59:40;9.02;;;7.40;;
25069;SDS011;13064;48.162;11.536;2022-11-14T06:02:27;9.63;;;7.55;;
25069;SDS011;13064;48.162;11.536;2022-11-14T06:05:13;10.40;;;7.85;;
25069;SDS011;13064;48.162;11.536;2022-11-14T06:08:09;8.00;;;6.93;;
25069;SDS011;13064;48.162;11.536;2022-11-14T06:10:55;11.43;;;7.50;;
25069;SDS011;13064;48.162;11.536;2022-11-14T06:13:41;9.85;;;7.38;;
25069;SDS011;13064;48.162;11.536;2022-11-14T06:16:28;8.50;;;7.07;;
25069;SDS011;13064;48.162;11.536;2022-11-14T06:19:14;12.27;;;7.68;;
25069;SDS011;13064;48.162;11.536;2022-11-14T06:22:00;7.80;;;6.82;;
25069;SDS011;13064;48.162;11.536;2022-11-14T06:24:46;9.57;;;7.78;;
25069;SDS011;13064;48.162;11.536;2022-11-14T06:27:34;8.57;;;6.63;;
25069;SDS011;13064;48.162;11.536;2022-11-14T06:30:20;9.00;;;7.03;;
25069;SDS011;13064;48.162;11.536;2022-11-14T06:33:06;9.45;;;7.38;;
25069;SDS011;13064;48.162;11.536;2022-11-14T06:35:59;9.00;;;7.07;;
25069;SDS011;13064;48.162;11.536;2022-11-14T06:38:46;13.68;;;7.35;;
25069;SDS011;13064;48.162;11.536;2022-11-14T06:41:32;8.93;;;6.93;;
25069;SDS011;13064;48.162;11.536;2022-11-14T06:44:18;11.77;;;7.70;;
25069;SDS011;13064;48.162;11.536;2022-11-14T06:47:04;8.55;;;6.78;;
25069;SDS011;13064;48.162;11.536;2022-11-14T06:49:50;8.35;;;6.63;;
25069;SDS011;13064;48.162;11.536;2022-11-14T06:52:37;9.18;;;6.70;;
25069;SDS011;13064;48.162;11.536;2022-11-14T06:55:23;9.20;;;7.03;;
25069;SDS011;13064;48.162;11.536;2022-11-14T06:58:09;9.63;;;7.13;;
25069;SDS011;13064;48.162;11.536;2022-11-14T07:00:56;10.07;;;7.25;;
25069;SDS011;13064;48.162;11.536;2022-11-14T07:03:42;11.88;;;6.93;;
25069;SDS011;13064;48.162;11.536;2022-11-14T07:06:29;10.20;;;7.55;;
25069;SDS011;13064;48.162;11.536;2022-11-14T07:09:15;8.30;;;6.88;;
25069;SDS011;13064;48.162;11.536;2022-11-14T07:12:01;11.30;;;7.57;;
25069;SDS011;13064;48.162;11.536;2022-11-14T07:14:48;9.55;;;7.55;;
25069;SDS011;13064;48.162;11.536;2022-11-14T07:17:34;11.90;;;6.82;;
25069;SDS011;13064;48.162;11.536;2022-11-14T07:20:20;9.27;;;7.07;;
25069;SDS011;13064;48.162;11.536;2022-11-14T07:23:07;8.80;;;7.10;;
25069;SDS011;13064;48.162;11.536;2022-11-14T07:25:53;13.60;;;7.75;;
25069;SDS011;13064;48.162;11.536;2022-11-14T07:28:40;9.55;;;7.78;;
25069;SDS011;13064;48.162;11.536;2022-11-14T07:31:26;9.18;;;7.72;;
25069;SDS011;13064;48.162;11.536;2022-11-14T07:34:12;9.43;;;7.90;;
25069;SDS011;13064;48.162;11.536;2022-11-14T07:36:59;9.93;;;7.50;;
25069;SDS011;13064;48.162;11.536;2022-11-14T07:39:45;10.80;;;7.82;;
25069;SDS011;13064;48.162;11.536;2022-11-14T07:42:31;10.13;;;7.35;;
25069;SDS011;13064;48.162;11.536;2022-11-14T07:45:17;11.68;;;7.80;;
25069;SDS011;13064;48.162;11.536;2022-11-14T07:48:04;16.05;;;7.55;;
25069;SDS011;13064;48.162;11.536;2022-11-14T07:50:50;9.45;;;7.25;;
25069;SDS011;13064;48.162;11.536;2022-11-14T07:53:37;14.63;;;7.93;;
25069;SDS011;13064;48.162;11.536;2022-11-14T07:56:25;12.68;;;8.93;;
25069;SDS011;13064;48.162;11.536;2022-11-14T07:59:11;11.43;;;8.52;;
25069;SDS011;13064;48.162;11.536;2022-11-14T08:01:58;12.32;;;8.88;;
25069;SDS011;13064;48.162;11.536;2022-11-14T08:04:44;12.82;;;8.88;;
25069;SDS011;13064;48.162;11.536;2022-11-14T08:07:30;12.88;;;8.55;;
25069;SDS011;13064;48.162;11.536;2022-11-14T08:10:17;13.82;;;8.77;;
25069;SDS011;13064;48.162;11.536;2022-11-14T08:13:04;13.88;;;9.35;;
25069;SDS011;13064;48.162;11.536;2022-11-14T08:16:12;12.55;;;8.82;;
25069;SDS011;13064;48.162;11.536;2022-11-14T08:18:59;13.85;;;9.18;;
25069;SDS011;13064;48.162;11.536;2022-11-14T08:21:45;11.48;;;9.65;;
25069;SDS011;13064;48.162;11.536;2022-11-14T08:24:32;14.40;;;9.70;;
25069;SDS011;13064;48.162;11.536;2022-11-14T08:27:18;13.20;;;9.68;;
25069;SDS011;13064;48.162;11.536;2022-11-14T08:30:04;12.57;;;9.10;;
25069;SDS011;13064;48.162;11.536;2022-11-14T08:32:50;11.63;;;8.50;;
25069;SDS011;13064;48.162;11.536;2022-11-14T08:35:37;13.50;;;8.95;;
25069;SDS011;13064;48.162;11.536;2022-11-14T08:38:23;13.48;;;8.63;;
25069;SDS011;13064;48.162;11.536;2022-11-14T08:41:09;14.55;;;9.00;;
25069;SDS011;13064;48.162;11.536;2022-11-14T08:43:56;17.02;;;9.55;;
25069;SDS011;13064;48.162;11.536;2022-11-14T08:46:42;13.88;;;8.60;;
25069;SDS011;13064;48.162;11.536;2022-11-14T08:49:29;14.40;;;8.57;;
25069;SDS011;13064;48.162;11.536;2022-11-14T08:52:15;12.15;;;8.50;;
25069;SDS011;13064;48.162;11.536;2022-11-14T08:55:01;9.57;;;7.78;;
25069;SDS011;13064;48.162;11.536;2022-11-14T08:57:48;12.25;;;7.63;;
25069;SDS011;13064;48.162;11.536;2022-11-14T09:00:34;9.57;;;7.07;;
25069;SDS011;13064;48.162;11.536;2022-11-14T09:03:20;8.82;;;7.10;;
25069;SDS011;13064;48.162;11.536;2022-11-14T09:06:07;7.85;;;6.93;;
25069;SDS011;13064;48.162;11.536;2022-11-14T09:08:53;8.07;;;6.63;;
25069;SDS011;13064;48.162;11.536;2022-11-14T09:11:39;9.07;;;7.28;;
25069;SDS011;13064;48.162;11.536;2022-11-14T09:14:26;10.77;;;7.28;;
25069;SDS011;13064;48.162;11.536;2022-11-14T09:17:12;9.65;;;6.93;;
25069;SDS011;13064;48.162;11.536;2022-11-14T09:19:58;11.48;;;7.00;;
25069;SDS011;13064;48.162;11.536;2022-11-14T09:22:45;8.82;;;7.35;;
25069;SDS011;13064;48.162;11.536;2022-11-14T09:25:31;9.40;;;7.15;;
25069;SDS011;13064;48.162;11.536;2022-11-14T09:28:17;14.52;;;7.72;;
25069;SDS011;13064;48.162;11.536;2022-11-14T09:31:06;13.25;;;8.18;;
25069;SDS011;13064;48.162;11.536;2022-11-14T09:33:53;14.23;;;8.70;;
25069;SDS011;13064;48.162;11.536;2022-11-14T09:36:39;13.15;;;9.23;;
25069;SDS011;13064;48.162;11.536;2022-11-14T09:39:25;12.55;;;9.77;;
25069;SDS011;13064;48.162;11.536;2022-11-14T09:45:11;12.75;;;9.43;;
25069;SDS011;13064;48.162;11.536;2022-11-14T09:48:03;13.50;;;9.82;;
25069;SDS011;13064;48.162;11.536;2022-11-14T09:56:50;16.13;;;10.00;;
25069;SDS011;13064;48.162;11.536;2022-11-14T09:59:36;16.90;;;9.98;;
25069;SDS011;13064;48.162;11.536;2022-11-14T10:05:33;14.13;;;9.55;;
25069;SDS011;13064;48.162;11.536;2022-11-14T10:08:25;20.48;;;9.30;;
25069;SDS011;13064;48.162;11.536;2022-11-14T10:11:21;13.35;;;9.13;;
25069;SDS011;13064;48.162;11.536;2022-11-14T10:14:47;13.70;;;8.75;;
25069;SDS011;13064;48.162;11.536;2022-11-14T10:17:52;16.50;;;9.15;;
25069;SDS011;13064;48.162;11.536;2022-11-14T10:20:55;10.63;;;8.63;;
25069;SDS011;13064;48.162;11.536;2022-11-14T10:26:29;10.52;;;7.35;;
25069;SDS011;13064;48.162;11.536;2022-11-14T10:35:18;9.77;;;7.15;;
25069;SDS011;13064;48.162;11.536;2022-11-14T10:40:53;10.13;;;7.00;;
25069;SDS011;13064;48.162;11.536;2022-11-14T10:43:43;7.25;;;6.35;;
25069;SDS011;13064;48.162;11.536;2022-11-14T10:46:32;9.17;;;6.70;;
25069;SDS011;13064;48.162;11.536;2022-11-14T10:49:22;9.20;;;6.28;;
25069;SDS011;13064;48.162;11.536;2022-11-14T10:52:11;6.55;;;5.88;;
25069;SDS011;13064;48.162;11.536;2022-11-14T10:55:12;9.90;;;6.20;;
25069;SDS011;13064;48.162;11.536;2022-11-14T10:57:59;7.32;;;5.72;;
25069;SDS011;13064;48.162;11.536;2022-11-14T11:00:46;6.10;;;5.50;;
25069;SDS011;13064;48.162;11.536;2022-11-14T11:03:41;6.60;;;5.70;;
25069;SDS011;13064;48.162;11.536;2022-11-14T11:06:28;6.57;;;5.93;;
25069;SDS011;13064;48.162;11.536;2022-11-14T11:09:16;9.27;;;7.82;;
25069;SDS011;13064;48.162;11.536;2022-11-14T11:15:22;9.10;;;8.20;;
25069;SDS011;13064;48.162;11.536;2022-11-14T11:18:26;15.07;;;9.45;;
25069;SDS011;13064;48.162;11.536;2022-11-14T11:21:14;12.13;;;8.80;;
25069;SDS011;13064;48.162;11.536;2022-11-14T11:24:01;9.93;;;8.85;;
25069;SDS011;13064;48.162;11.536;2022-11-14T11:26:47;8.80;;;7.85;;
25069;SDS011;13064;48.162;11.536;2022-11-14T11:29:33;9.57;;;8.10;;
25069;SDS011;13064;48.162;11.536;2022-11-14T11:32:24;8.82;;;7.00;;
25069;SDS011;13064;48.162;11.536;2022-11-14T11:35:11;8.45;;;6.80;;
25069;SDS011;13064;48.162;11.536;2022-11-14T11:37:57;7.20;;;6.50;;
25069;SDS011;13064;48.162;11.536;2022-11-14T11:40:49;6.90;;;6.10;;
25069;SDS011;13064;48.162;11.536;2022-11-14T11:43:38;8.05;;;6.20;;
25069;SDS011;13064;48.162;11.536;2022-11-14T11:46:45;7.05;;;5.80;;
25069;SDS011;13064;48.162;11.536;2022-11-14T11:55:31;5.75;;;5.18;;
25069;SDS011;13064;48.162;11.536;2022-11-14T11:58:22;5.40;;;4.70;;
25069;SDS011;13064;48.162;11.536;2022-11-14T12:03:56;5.13;;;4.30;;
25069;SDS011;13064;48.162;11.536;2022-11-14T12:06:49;5.22;;;4.45;;
25069;SDS011;13064;48.162;11.536;2022-11-14T12:09:39;4.88;;;4.47;;
25069;SDS011;13064;48.162;11.536;2022-11-14T12:18:31;5.78;;;4.30;;
25069;SDS011;13064;48.162;11.536;2022-11-14T12:24:39;5.03;;;4.50;;
25069;SDS011;13064;48.162;11.536;2022-11-14T12:30:23;4.95;;;4.40;;
25069;SDS011;13064;48.162;11.536;2022-11-14T12:33:20;6.03;;;4.55;;
25069;SDS011;13064;48.162;11.536;2022-11-14T12:36:09;6.05;;;3.92;;
25069;SDS011;13064;48.162;11.536;2022-11-14T12:38:56;4.97;;;4.47;;
25069;SDS011;13064;48.162;11.536;2022-11-14T12:41:42;6.65;;;4.65;;
25069;SDS011;13064;48.162;11.536;2022-11-14T12:47:18;5.13;;;4.63;;
25069;SDS011;13064;48.162;11.536;2022-11-14T13:02:17;5.05;;;4.10;;
25069;SDS011;13064;48.162;11.536;2022-11-14T13:10:51;8.10;;;4.28;;
25069;SDS011;13064;48.162;11.536;2022-11-14T13:14:00;4.70;;;3.90;;
25069;SDS011;13064;48.162;11.536;2022-11-14T13:20:24;7.13;;;4.15;;
25069;SDS011;13064;48.162;11.536;2022-11-14T13:23:52;6.43;;;4.30;;
25069;SDS011;13064;48.162;11.536;2022-11-14T13:26:36;4.47;;;3.67;;
25069;SDS011;13064;48.162;11.536;2022-11-14T13:32:59;4.93;;;3.30;;
25069;SDS011;13064;48.162;11.536;2022-11-14T13:35:39;6.35;;;3.60;;
25069;SDS011;13064;48.162;11.536;2022-11-14T13:38:33;5.40;;;3.78;;
25069;SDS011;13064;48.162;11.536;2022-11-14T13:47:43;5.90;;;4.60;;
25069;SDS011;13064;48.162;11.536;2022-11-14T13:50:34;5.22;;;4.28;;
25069;SDS011;13064;48.162;11.536;2022-11-14T13:53:21;5.47;;;4.10;;
25069;SDS011;13064;48.162;11.536;2022-11-14T13:59:42;4.05;;;3.60;;
25069;SDS011;13064;48.162;11.536;2022-11-14T14:05:12;6.15;;;4.00;;
25069;SDS011;13064;48.162;11.536;2022-11-14T14:08:06;6.30;;;4.20;;
25069;SDS011;13064;48.162;11.536;2022-11-14T14:11:02;5.47;;;3.60;;
25069;SDS011;13064;48.162;11.536;2022-11-14T14:16:59;6.10;;;3.83;;
25069;SDS011;13064;48.162;11.536;2022-11-14T14:19:54;6.90;;;4.28;;
25069;SDS011;13064;48.162;11.536;2022-11-14T14:22:47;7.43;;;4.00;;
25069;SDS011;13064;48.162;11.536;2022-11-14T14:28:42;8.50;;;3.67;;
25069;SDS011;13064;48.162;11.536;2022-11-14T14:31:33;10.32;;;4.72;;
25069;SDS011;13064;48.162;11.536;2022-11-14T14:34:25;7.15;;;4.20;;
25069;SDS011;13064;48.162;11.536;2022-11-14T14:37:22;7.72;;;4.50;;
25069;SDS011;13064;48.162;11.536;2022-11-14T14:40:21;10.18;;;5.00;;
25069;SDS011;13064;48.162;11.536;2022-11-14T14:43:11;8.77;;;5.03;;
25069;SDS011;13064;48.162;11.536;2022-11-14T14:45:58;11.43;;;4.80;;
25069;SDS011;13064;48.162;11.536;2022-11-14T14:48:44;10.30;;;4.82;;
25069;SDS011;13064;48.162;11.536;2022-11-14T14:51:34;7.43;;;4.55;;
25069;SDS011;13064;48.162;11.536;2022-11-14T14:54:23;6.28;;;4.50;;
25069;SDS011;13064;48.162;11.536;2022-11-14T14:57:15;11.55;;;5.20;;
25069;SDS011;13064;48.162;11.536;2022-11-14T15:00:06;12.10;;;5.38;;
25069;SDS011;13064;48.162;11.536;2022-11-14T15:02:54;7.13;;;4.43;;
25069;SDS011;13064;48.162;11.536;2022-11-14T15:05:40;12.85;;;5.43;;
25069;SDS011;13064;48.162;11.536;2022-11-14T15:08:26;11.00;;;5.30;;
25069;SDS011;13064;48.162;11.536;2022-11-14T15:11:13;12.95;;;5.35;;
25069;SDS011;13064;48.162;11.536;2022-11-14T15:14:00;8.48;;;5.20;;
25069;SDS011;13064;48.162;11.536;2022-11-14T15:16:47;10.40;;;5.53;;
25069;SDS011;13064;48.162;11.536;2022-11-14T15:19:38;12.85;;;5.80;;
25069;SDS011;13064;48.162;11.536;2022-11-14T15:22:25;9.93;;;5.47;;
25069;SDS011;13064;48.162;11.536;2022-11-14T15:27:59;14.63;;;5.80;;
25069;SDS011;13064;48.162;11.536;2022-11-14T15:30:59;10.88;;;5.50;;
25069;SDS011;13064;48.162;11.536;2022-11-14T15:33:59;10.65;;;6.00;;
25069;SDS011;13064;48.162;11.536;2022-11-14T15:37:28;11.52;;;5.78;;
25069;SDS011;13064;48.162;11.536;2022-11-14T15:40:13;13.77;;;5.70;;
25069;SDS011;13064;48.162;11.536;2022-11-14T15:43:00;11.23;;;6.18;;
25069;SDS011;13064;48.162;11.536;2022-11-14T15:52:03;11.20;;;6.53;;
25069;SDS011;13064;48.162;11.536;2022-11-14T15:54:50;16.77;;;6.70;;
25069;SDS011;13064;48.162;11.536;2022-11-14T15:57:36;9.98;;;6.43;;
25069;SDS011;13064;48.162;11.536;2022-11-14T16:00:22;12.88;;;6.18;;
25069;SDS011;13064;48.162;11.536;2022-11-14T16:03:09;8.93;;;6.30;;
25069;SDS011;13064;48.162;11.536;2022-11-14T16:05:56;9.27;;;6.30;;
25069;SDS011;13064;48.162;11.536;2022-11-14T16:08:43;11.82;;;7.68;;
25069;SDS011;13064;48.162;11.536;2022-11-14T16:11:29;11.43;;;7.10;;
25069;SDS011;13064;48.162;11.536;2022-11-14T16:14:15;11.98;;;7.68;;
25069;SDS011;13064;48.162;11.536;2022-11-14T16:17:02;12.38;;;7.15;;
25069;SDS011;13064;48.162;11.536;2022-11-14T16:19:48;12.45;;;6.70;;
25069;SDS011;13064;48.162;11.536;2022-11-14T16:22:34;12.82;;;7.97;;
25069;SDS011;13064;48.162;11.536;2022-11-14T16:25:22;12.50;;;7.40;;
25069;SDS011;13064;48.162;11.536;2022-11-14T16:28:08;14.25;;;7.60;;
25069;SDS011;13064;48.162;11.536;2022-11-14T16:30:55;11.27;;;7.82;;
25069;SDS011;13064;48.162;11.536;2022-11-14T16:33:41;12.55;;;6.85;;
25069;SDS011;13064;48.162;11.536;2022-11-14T16:36:28;11.23;;;7.78;;
25069;SDS011;13064;48.162;11.536;2022-11-14T16:39:16;11.23;;;7.32;;
25069;SDS011;13064;48.162;11.536;2022-11-14T16:42:02;15.32;;;7.80;;
25069;SDS011;13064;48.162;11.536;2022-11-14T16:44:48;16.35;;;7.55;;
25069;SDS011;13064;48.162;11.536;2022-11-14T16:47:35;12.32;;;7.88;;
25069;SDS011;13064;48.162;11.536;2022-11-14T16:50:21;13.10;;;7.38;;
25069;SDS011;13064;48.162;11.536;2022-11-14T16:53:07;10.48;;;6.95;;
25069;SDS011;13064;48.162;11.536;2022-11-14T16:55:54;9.48;;;7.15;;
25069;SDS011;13064;48.162;11.536;2022-11-14T16:58:40;11.30;;;6.82;;
25069;SDS011;13064;48.162;11.536;2022-11-14T17:01:26;10.93;;;7.25;;
25069;SDS011;13064;48.162;11.536;2022-11-14T17:04:12;9.82;;;6.55;;
25069;SDS011;13064;48.162;11.536;2022-11-14T17:06:58;11.00;;;7.43;;
25069;SDS011;13064;48.162;11.536;2022-11-14T17:09:45;10.13;;;7.20;;
25069;SDS011;13064;48.162;11.536;2022-11-14T17:12:31;15.48;;;7.40;;
25069;SDS011;13064;48.162;11.536;2022-11-14T17:15:18;12.80;;;7.32;;
25069;SDS011;13064;48.162;11.536;2022-11-14T17:18:04;10.65;;;7.18;;
25069;SDS011;13064;48.162;11.536;2022-11-14T17:20:50;10.80;;;7.18;;
25069;SDS011;13064;48.162;11.536;2022-11-14T17:23:37;8.68;;;6.07;;
25069;SDS011;13064;48.162;11.536;2022-11-14T17:26:24;10.30;;;7.20;;
25069;SDS011;13064;48.162;11.536;2022-11-14T17:29:10;10.00;;;6.55;;
25069;SDS011;13064;48.162;11.536;2022-11-14T17:31:57;12.75;;;7.15;;
25069;SDS011;13064;48.162;11.536;2022-11-14T17:34:43;11.32;;;6.57;;
25069;SDS011;13064;48.162;11.536;2022-11-14T17:37:30;9.00;;;6.38;;
25069;SDS011;13064;48.162;11.536;2022-11-14T17:40:16;9.02;;;6.50;;
25069;SDS011;13064;48.162;11.536;2022-11-14T17:43:02;8.95;;;6.25;;
25069;SDS011;13064;48.162;11.536;2022-11-14T17:45:55;7.80;;;6.22;;
25069;SDS011;13064;48.162;11.536;2022-11-14T17:48:44;15.18;;;7.20;;
25069;SDS011;13064;48.162;11.536;2022-11-14T17:51:31;10.23;;;6.25;;
25069;SDS011;13064;48.162;11.536;2022-11-14T17:54:17;11.50;;;6.35;;
25069;SDS011;13064;48.162;11.536;2022-11-14T17:57:04;8.27;;;6.18;;
25069;SDS011;13064;48.162;11.536;2022-11-14T17:59:50;11.50;;;6.28;;
25069;SDS011;13064;48.162;11.536;2022-11-14T18:02:36;11.05;;;5.70;;
25069;SDS011;13064;48.162;11.536;2022-11-14T18:05:23;9.25;;;5.43;;
25069;SDS011;13064;48.162;11.536;2022-11-14T18:08:09;8.35;;;5.80;;
25069;SDS011;13064;48.162;11.536;2022-11-14T18:10:58;8.23;;;5.30;;
25069;SDS011;13064;48.162;11.536;2022-11-14T18:13:45;11.93;;;6.20;;
25069;SDS011;13064;48.162;11.536;2022-11-14T18:16:31;10.90;;;5.85;;
25069;SDS011;13064;48.162;11.536;2022-11-14T18:19:37;10.65;;;5.50;;
25069;SDS011;13064;48.162;11.536;2022-11-14T18:22:23;7.65;;;5.32;;
25069;SDS011;13064;48.162;11.536;2022-11-14T18:25:09;10.07;;;5.57;;